Aérodrome :
LOGIN :

S'inscrire | Disclaimer

   EN    FR    IT 

 










Légende :    VFR   VFR Marginal   IFR   IFR Intensif   IFR Très Intensif
Visi : 
Plafond : 
>= 8 km
>= 3000ft
5 à 8 km
1000 à 3000 ft
1500m à 5 km
500 à 1000 ft
800 à 1500m
200 à 500 ft
< 800m
< 200 ft
Symboles :   Orages  Brouillard  Fortes neiges  Fortes précipitations  Vent > 20 kt
SIGMETs :   Divers  Orages  Givrage  Turbulence  Onde Orograph.  Cendres Volcan.







- Altitude de l'aérodrome : 16 ft
- Code IATA : SDR


LEXJ - Santander Cantabria

DERNIER METAR :
  • 181400Z 31009KT 260V360 9999 BKN011 19/16 Q1010

METARs EXPIRÉS :
  • 181330Z 29012KT 260V330 9999 BKN011 20/16 Q1010
  • 181300Z 30016KT 270V340 9999 BKN010 21/16 Q1010
  • 181244Z 30016KT 270V340 9999 BKN010 21/17 Q1009
  • 181230Z 30019KT 9999 FEW009 22/17 Q1009
  • 181200Z 30010KT 270V350 CAVOK 24/19 Q1008
  • 181130Z 29012KT 260V360 CAVOK 24/18 Q1008

TAF TAF LEXJ
Valide du 18 à 15h jusqu'au 19 à 15h UTC


181400Z 1815/1915 30007KT 9999 SCT020 TX22/1915Z TN13/1905Z
TEMPO 1815/1818 BKN010
TEMPO 1912/1915 36010KT
Pas de NOTAMs connus pour ce terrain.



MET'MAP, la Météo Aéronautique d'un coup d'oeil ! - Copyright ORBIFLY Décembre 2007 - Disclaimer

ORBIFLY MET'MAP TEAM :

Programmation & Développement : Alexandra Zaïnal
Conception & Développement : Baudouin d'Aumeries
Co-Programmation & Développement : Marc-Olivier Méhu
Soutien technique & logistique : Manuel Goepfert

Contact : metmap@orbifly.com




SOURCES & CREDITS :

   NOAA